CDT,Max TemperatureF,Mean TemperatureF,Min TemperatureF,Max Dew PointF,MeanDew PointF,Min DewpointF,Max Humidity, Mean Humidity, Min Humidity, Max Sea Level PressureIn, Mean Sea Level PressureIn, Min Sea Level PressureIn, Max VisibilityMiles, Mean VisibilityMiles, Min VisibilityMiles, Max Wind SpeedMPH, Mean Wind SpeedMPH, Max Gust SpeedMPH,PrecipitationIn, CloudCover, Events, WindDirDegrees
2013-4-1,82,74,65,65,63,62,93,72,51,30.07,29.99,29.92,10,10,10,17,5,22,0.00,6,,103
2013-4-2,72,66,60,65,62,57,93,86,79,30.02,29.95,29.86,10,7,2,26,8,38,0.76,6,Rain-Thunderstorm,84
2013-4-3,63,57,50,60,52,48,96,88,80,30.11,29.98,29.68,10,7,2,28,12,35,0.12,7,Rain,356
2013-4-4,53,50,47,48,44,40,93,80,66,30.21,30.13,30.07,10,9,4,20,11,24,0.01,8,Rain,334
2013-4-5,69,55,41,50,45,40,89,67,44,30.27,30.18,30.08,10,10,6,10,5,14,0.00,1,,325
2013-4-6,76,63,50,57,53,47,89,71,53,30.07,30.00,29.90,10,10,9,23,12,31,0.00,3,,167
2013-4-7,80,71,62,61,59,57,90,71,52,29.97,29.89,29.80,10,10,10,23,12,31,0.00,7,,157
2013-4-8,83,75,67,66,64,60,93,79,64,29.86,29.79,29.70,10,10,9,25,15,33,0.00,8,,162
2013-4-9,87,78,68,72,66,64,93,72,51,29.76,29.72,29.63,10,9,4,28,18,36,T,6,Rain,149
2013-4-10,75,61,46,70,52,39,93,85,76,29.92,29.82,29.67,10,8,2,30,14,41,0.17,8,Rain,337
2013-4-11,68,56,43,44,38,32,83,58,32,29.96,29.89,29.81,10,10,10,21,8,25,T,2,Rain,357
2013-4-12,79,62,44,46,42,37,89,56,23,30.01,29.93,29.88,10,10,10,10,4,16,0.00,0,,135
2013-4-13,78,65,51,55,50,46,93,65,36,29.98,29.90,29.81,10,10,9,20,8,23,0.00,1,,139
2013-4-14,83,69,54,67,60,52,93,76,58,29.81,29.72,29.62,10,9,4,21,8,25,0.00,3,,166
2013-4-15,85,78,70,69,67,66,90,73,55,29.83,29.76,29.70,10,8,3,23,14,28,0.00,6,,166
2013-4-16,88,79,70,72,68,64,90,70,50,29.93,29.87,29.81,10,7,4,24,14,30,T,4,,150
2013-4-17,84,79,73,73,70,68,93,78,63,29.92,29.83,29.72,10,7,2,28,17,36,T,7,Rain,147
2013-4-18,74,63,51,72,57,38,93,74,54,30.09,29.83,29.67,10,7,0,31,14,37,0.34,7,Fog-Rain,322
2013-4-19,66,55,43,37,32,24,76,48,20,30.27,30.21,30.09,10,10,10,23,10,29,0.00,0,,349
2013-4-20,71,56,41,42,35,31,76,51,26,30.24,30.16,30.05,10,10,10,18,9,25,0.00,0,,133
2013-4-21,75,63,50,53,49,43,80,62,44,30.17,30.11,30.05,10,10,10,15,7,18,0.00,4,,117
2013-4-22,82,67,52,60,56,50,93,68,43,30.11,30.02,29.89,10,10,6,21,8,28,0.00,0,,161
2013-4-23,80,65,50,64,60,44,93,76,58,30.08,29.95,29.87,10,10,8,20,11,26,T,8,Rain,170
2013-4-24,68,57,45,43,41,37,86,62,37,30.25,30.19,30.11,10,10,8,23,14,30,0.01,6,Rain,1
2013-4-25,75,65,54,46,44,41,62,47,31,30.32,30.24,30.17,10,10,3,15,8,20,0.00,5,,74
2013-4-26,86,76,66,67,60,43,93,66,39,30.18,30.12,30.02,10,9,3,22,13,28,0.01,6,Rain,155
2013-4-27,83,75,66,70,66,62,90,74,58,30.11,30.04,29.94,10,10,2,20,7,23,0.07,6,Rain-Thunderstorm,176
2013-4-28,84,73,62,64,61,58,93,68,43,30.06,29.96,29.87,10,10,8,14,6,17,0.03,1,Thunderstorm,172
2013-4-29,83,74,64,66,64,57,100,74,47,29.95,29.90,29.80,10,6,0,25,6,32,0.13,5,Fog-Thunderstorm,171
2013-4-30,85,75,64,66,63,60,100,72,44,29.85,29.81,29.72,10,7,0,15,4,20,0.00,5,Fog,135